createdAt,value
2023-06-19T00:01:10.821Z,3.78
2023-06-19T00:03:38.098Z,3.50
2023-06-19T00:06:05.364Z,3.10
2023-06-19T00:08:32.490Z,2.97
2023-06-19T00:10:59.688Z,3.47
2023-06-19T00:13:27.015Z,3.20
2023-06-19T00:15:54.324Z,2.92
2023-06-19T00:18:21.472Z,2.97
2023-06-19T00:20:48.794Z,3.20
2023-06-19T00:23:18.041Z,2.78
2023-06-19T00:25:45.981Z,2.55
2023-06-19T00:28:15.079Z,2.83
2023-06-19T00:30:43.000Z,3.03
2023-06-19T00:33:10.565Z,2.67
2023-06-19T00:35:37.926Z,2.55
2023-06-19T00:38:07.273Z,2.60
2023-06-19T00:40:35.383Z,2.03
2023-06-19T00:43:03.059Z,2.45
2023-06-19T00:45:30.429Z,2.25
2023-06-19T00:47:58.571Z,2.25
2023-06-19T00:50:26.368Z,2.28
2023-06-19T00:52:53.960Z,2.45
2023-06-19T00:55:21.341Z,1.80
2023-06-19T00:57:48.722Z,2.28
2023-06-19T01:00:15.997Z,2.15
2023-06-19T01:02:43.226Z,2.05
2023-06-19T01:05:10.559Z,1.88
2023-06-19T01:07:45.139Z,1.92
2023-06-19T01:10:17.030Z,2.10
2023-06-19T01:12:51.713Z,2.03
2023-06-19T01:15:19.332Z,2.05
2023-06-19T01:17:48.469Z,1.75
2023-06-19T01:20:16.016Z,1.70
2023-06-19T01:22:46.548Z,1.77
2023-06-19T01:25:14.990Z,1.63
2023-06-19T01:27:43.443Z,1.73
2023-06-19T01:30:11.752Z,1.83
2023-06-19T01:32:57.597Z,1.92
2023-06-19T01:35:26.502Z,1.70
2023-06-19T01:37:54.317Z,1.52
2023-06-19T01:40:27.316Z,2.03
2023-06-19T01:42:55.522Z,1.42
2023-06-19T01:45:22.994Z,1.80
2023-06-19T01:47:50.339Z,1.50
2023-06-19T01:50:17.693Z,1.50
2023-06-19T01:52:46.966Z,1.70
2023-06-19T01:55:14.892Z,1.80
2023-06-19T01:57:42.354Z,1.73
2023-06-19T02:00:11.237Z,1.75
2023-06-19T02:02:39.147Z,1.83
2023-06-19T02:05:06.544Z,1.90
2023-06-19T02:07:33.765Z,1.80
2023-06-19T02:10:01.023Z,1.80
2023-06-19T02:12:28.344Z,1.67
2023-06-19T02:14:55.520Z,1.98
2023-06-19T02:17:22.707Z,1.92
2023-06-19T02:19:50.039Z,2.00
2023-06-19T02:22:17.204Z,1.55
2023-06-19T02:24:45.707Z,1.88
2023-06-19T02:27:13.014Z,1.80
2023-06-19T02:29:40.219Z,1.70
2023-06-19T02:32:07.512Z,1.90
2023-06-19T02:34:34.942Z,1.90
2023-06-19T02:37:02.121Z,1.55
2023-06-19T02:39:29.335Z,1.83
2023-06-19T02:41:56.553Z,1.80
2023-06-19T02:44:23.704Z,1.90
2023-06-19T02:46:50.922Z,1.58
2023-06-19T02:49:18.156Z,1.90
2023-06-19T02:51:45.351Z,1.75
2023-06-19T02:54:12.736Z,1.85
2023-06-19T02:56:40.053Z,1.80
2023-06-19T02:59:07.709Z,1.50
2023-06-19T03:01:35.267Z,1.70
2023-06-19T03:04:02.470Z,1.92
2023-06-19T03:06:29.960Z,1.58
2023-06-19T03:08:57.552Z,1.70
2023-06-19T03:11:24.762Z,2.08
2023-06-19T03:13:52.982Z,1.90
2023-06-19T03:16:20.462Z,1.90
2023-06-19T03:18:49.302Z,1.85
2023-06-19T03:21:20.790Z,1.83
2023-06-19T03:23:48.357Z,2.10
2023-06-19T03:26:15.527Z,2.10
2023-06-19T03:28:42.749Z,1.75
2023-06-19T03:31:10.001Z,2.25
2023-06-19T03:33:37.170Z,2.08
2023-06-19T03:36:04.661Z,2.67
2023-06-19T03:38:31.977Z,2.17
2023-06-19T03:40:59.213Z,2.53
2023-06-19T03:43:26.375Z,2.50
2023-06-19T03:45:53.582Z,2.10
2023-06-19T03:48:20.739Z,2.40
2023-06-19T03:50:48.085Z,2.28
2023-06-19T03:53:15.349Z,2.30
2023-06-19T03:55:42.550Z,2.03
2023-06-19T03:58:09.737Z,2.53
2023-06-19T04:00:36.935Z,2.63
2023-06-19T04:03:04.195Z,2.20
2023-06-19T04:05:31.430Z,2.45
2023-06-19T04:07:58.728Z,2.20
2023-06-19T04:10:26.227Z,2.72
2023-06-19T04:12:56.553Z,2.50
2023-06-19T04:15:24.332Z,3.03
2023-06-19T04:17:51.539Z,2.40
2023-06-19T04:20:18.783Z,2.47
2023-06-19T04:22:45.969Z,2.38
2023-06-19T04:25:13.335Z,3.08
2023-06-19T04:27:40.998Z,2.65
2023-06-19T04:30:08.544Z,2.60
2023-06-19T04:32:36.549Z,2.55
2023-06-19T04:35:04.398Z,2.30
2023-06-19T04:37:31.611Z,1.95
2023-06-19T04:39:58.832Z,1.95
2023-06-19T04:42:27.695Z,1.92
2023-06-19T04:44:56.487Z,2.10
2023-06-19T04:47:30.570Z,2.30
2023-06-19T04:50:03.952Z,1.70
2023-06-19T04:52:40.343Z,1.98
2023-06-19T04:55:10.446Z,1.77
2023-06-19T04:57:38.124Z,1.63
2023-06-19T05:00:11.395Z,1.60
2023-06-19T05:02:38.819Z,1.52
2023-06-19T05:05:06.577Z,1.60
2023-06-19T05:07:34.234Z,1.75
2023-06-19T05:10:01.422Z,2.63
2023-06-19T05:12:28.618Z,2.30
2023-06-19T05:14:55.777Z,2.80
2023-06-19T05:17:23.121Z,2.38
2023-06-19T05:19:50.708Z,2.45
2023-06-19T05:22:19.681Z,3.15
2023-06-19T05:24:46.901Z,3.60
2023-06-19T05:27:14.202Z,3.10
2023-06-19T05:29:41.440Z,3.33
2023-06-19T05:32:08.836Z,3.10
2023-06-19T05:34:36.102Z,3.55
2023-06-19T05:37:04.793Z,3.60
2023-06-19T05:41:59.259Z,3.72
2023-06-19T05:44:26.709Z,3.90
2023-06-19T05:46:54.053Z,3.70
2023-06-19T05:49:21.238Z,4.05
2023-06-19T05:51:49.028Z,4.55
2023-06-19T05:54:16.369Z,3.88
2023-06-19T05:56:43.626Z,4.50
2023-06-19T05:59:10.964Z,4.07
2023-06-19T06:01:38.179Z,3.50
2023-06-19T06:04:06.175Z,3.88
2023-06-19T06:06:33.396Z,4.28
2023-06-19T06:09:00.553Z,4.18
2023-06-19T06:11:27.741Z,4.15
2023-06-19T06:13:54.940Z,3.83
2023-06-19T06:16:22.162Z,5.75
2023-06-19T06:18:49.316Z,5.07
2023-06-19T06:21:16.517Z,4.32
2023-06-19T06:23:45.876Z,4.18
2023-06-19T06:26:13.201Z,3.80
2023-06-19T06:28:40.650Z,4.30
2023-06-19T06:31:08.315Z,4.20
2023-06-19T06:33:35.607Z,5.28
2023-06-19T06:36:07.185Z,4.05
2023-06-19T06:38:35.945Z,4.80
2023-06-19T06:41:03.179Z,3.88
2023-06-19T06:43:30.394Z,4.75
2023-06-19T06:45:57.789Z,4.97
2023-06-19T06:48:25.294Z,4.95
2023-06-19T06:51:00.130Z,4.53
2023-06-19T06:55:57.474Z,4.57
2023-06-19T06:58:24.688Z,5.25
2023-06-19T07:00:52.343Z,4.95
2023-06-19T07:03:19.883Z,5.38
2023-06-19T07:05:47.311Z,5.50
2023-06-19T07:08:14.476Z,5.15
2023-06-19T07:10:41.633Z,5.43
2023-06-19T07:13:09.112Z,4.65
2023-06-19T07:15:36.331Z,5.40
2023-06-19T07:18:06.758Z,4.60
2023-06-19T07:20:34.095Z,5.05
2023-06-19T07:23:01.363Z,6.30
2023-06-19T07:25:28.574Z,5.45
2023-06-19T07:27:55.809Z,5.32
2023-06-19T07:30:23.387Z,6.03
2023-06-19T07:32:50.926Z,6.05
2023-06-19T07:35:18.149Z,5.88
2023-06-19T07:37:46.122Z,5.72
2023-06-19T07:40:13.568Z,6.50
2023-06-19T07:42:42.256Z,6.03
2023-06-19T07:45:11.785Z,6.50
2023-06-19T07:47:39.034Z,6.32
2023-06-19T07:50:06.562Z,6.32
2023-06-19T07:52:34.441Z,6.05
2023-06-19T07:55:01.876Z,6.60
2023-06-19T07:57:29.165Z,7.85
2023-06-19T07:59:56.731Z,6.20
2023-06-19T08:02:24.166Z,7.18
2023-06-19T08:04:51.489Z,7.78
2023-06-19T08:07:18.727Z,6.28
2023-06-19T08:09:48.300Z,6.55
2023-06-19T08:12:19.316Z,6.43
2023-06-19T08:14:46.512Z,7.60
2023-06-19T08:17:13.749Z,7.50
2023-06-19T08:19:41.100Z,7.82
2023-06-19T08:22:08.327Z,7.75
2023-06-19T08:24:37.460Z,7.82
2023-06-19T08:27:04.801Z,9.05
2023-06-19T08:29:31.968Z,8.10
2023-06-19T08:31:59.118Z,8.15
2023-06-19T08:34:26.341Z,9.93
2023-06-19T08:36:53.494Z,9.07
2023-06-19T08:39:23.290Z,8.52
2023-06-19T08:41:50.553Z,8.23
2023-06-19T08:44:17.864Z,8.00
2023-06-19T08:46:45.202Z,7.13
2023-06-19T08:49:12.528Z,6.72
2023-06-19T08:51:39.720Z,7.80
2023-06-19T08:54:08.354Z,6.60
2023-06-19T08:56:36.358Z,6.65
2023-06-19T08:59:13.499Z,6.93
2023-06-19T09:01:41.295Z,6.25
2023-06-19T09:04:14.898Z,6.40
2023-06-19T09:06:55.762Z,7.43
2023-06-19T09:09:26.884Z,7.18
2023-06-19T09:12:03.374Z,7.65
2023-06-19T09:14:40.664Z,6.78
2023-06-19T09:17:11.779Z,6.60
2023-06-19T09:19:41.138Z,7.32
2023-06-19T09:22:09.520Z,7.07
2023-06-19T09:24:37.942Z,7.40
2023-06-19T09:27:09.530Z,7.53
2023-06-19T09:29:40.144Z,7.57
2023-06-19T09:32:17.430Z,7.05
2023-06-19T09:34:44.726Z,7.47
2023-06-19T09:37:12.072Z,7.15
2023-06-19T09:39:39.647Z,6.93
2023-06-19T09:42:10.305Z,6.88
2023-06-19T09:44:46.833Z,7.18
2023-06-19T09:47:22.063Z,6.82
2023-06-19T09:50:00.115Z,7.95
2023-06-19T09:52:28.779Z,7.20
2023-06-19T09:57:23.782Z,6.18
2023-06-19T10:00:02.328Z,6.65
2023-06-19T10:02:30.123Z,6.82
2023-06-19T10:04:58.856Z,7.15
2023-06-19T10:10:13.814Z,6.63
2023-06-19T10:12:44.997Z,6.60
2023-06-19T10:15:19.672Z,6.38
2023-06-19T10:17:48.806Z,7.20
2023-06-19T10:20:25.551Z,6.88
2023-06-19T10:22:53.857Z,6.65
2023-06-19T10:25:25.261Z,6.88
2023-06-19T10:27:53.387Z,6.40
2023-06-19T10:30:21.465Z,7.10
2023-06-19T10:32:49.814Z,6.95
2023-06-19T10:35:18.439Z,6.40
2023-06-19T10:37:46.233Z,5.95
2023-06-19T10:40:13.946Z,6.25
2023-06-19T10:42:41.624Z,6.85
2023-06-19T10:45:19.301Z,6.95
2023-06-19T10:47:46.874Z,7.20
2023-06-19T10:50:14.974Z,7.22
2023-06-19T10:52:43.683Z,6.22
2023-06-19T10:57:38.539Z,5.93
2023-06-19T11:00:13.898Z,6.85
2023-06-19T11:02:44.994Z,6.70
2023-06-19T11:05:13.217Z,6.20
2023-06-19T11:07:40.498Z,5.95
2023-06-19T11:10:08.293Z,6.47
2023-06-19T11:12:35.784Z,6.40
2023-06-19T11:15:06.848Z,5.55
2023-06-19T11:17:34.406Z,5.75
2023-06-19T11:20:01.633Z,6.15
2023-06-19T11:22:39.324Z,5.80
2023-06-19T11:25:06.844Z,5.65
2023-06-19T11:27:34.054Z,5.00
2023-06-19T11:30:01.302Z,4.75
2023-06-19T11:32:32.852Z,6.10
2023-06-19T11:35:07.806Z,5.65
2023-06-19T11:37:35.964Z,5.05
2023-06-19T11:40:20.907Z,6.15
2023-06-19T11:42:48.164Z,5.15
2023-06-19T11:45:15.632Z,6.57
2023-06-19T11:47:44.574Z,5.72
2023-06-19T11:50:12.102Z,5.70
2023-06-19T11:52:39.318Z,6.85
2023-06-19T11:55:06.685Z,5.65
2023-06-19T11:57:36.729Z,5.53
2023-06-19T12:00:10.170Z,5.57
2023-06-19T12:02:37.566Z,4.88
2023-06-19T12:05:04.927Z,5.18
2023-06-19T12:07:32.183Z,4.85
2023-06-19T12:10:00.894Z,5.10
2023-06-19T12:12:29.340Z,5.63
2023-06-19T12:14:56.518Z,5.13
2023-06-19T12:17:23.907Z,5.28
2023-06-19T12:19:51.415Z,5.30
2023-06-19T12:22:18.586Z,5.25
2023-06-19T12:24:45.866Z,5.57
2023-06-19T12:27:13.236Z,5.20
2023-06-19T12:29:40.387Z,5.75
2023-06-19T12:32:07.872Z,5.15
2023-06-19T12:34:35.218Z,4.72
2023-06-19T12:37:02.540Z,5.05
2023-06-19T12:39:29.725Z,4.70
2023-06-19T12:41:56.977Z,5.20
2023-06-19T12:44:25.543Z,4.70
2023-06-19T12:46:53.935Z,5.32
2023-06-19T12:49:21.198Z,4.90
2023-06-19T12:51:52.316Z,5.30
2023-06-19T12:54:19.945Z,5.05
2023-06-19T12:56:47.396Z,6.05
2023-06-19T12:59:14.658Z,5.38
2023-06-19T13:01:42.588Z,5.13
2023-06-19T13:04:10.199Z,6.18
2023-06-19T13:06:38.012Z,4.82
2023-06-19T13:09:06.598Z,5.10
2023-06-19T13:14:02.804Z,5.13
2023-06-19T13:16:44.687Z,4.85
2023-06-19T13:19:13.864Z,4.25
2023-06-19T13:21:41.893Z,4.72
2023-06-19T13:24:09.224Z,4.82
2023-06-19T13:26:36.769Z,4.85
2023-06-19T13:29:04.250Z,5.60
2023-06-19T13:31:31.499Z,5.28
2023-06-19T13:33:59.693Z,5.13
2023-06-19T13:36:28.103Z,5.22
2023-06-19T13:38:55.480Z,6.38
2023-06-19T13:41:25.116Z,5.50
2023-06-19T13:43:54.990Z,5.13
2023-06-19T13:46:25.282Z,5.03
2023-06-19T13:48:53.147Z,5.57
2023-06-19T13:51:21.203Z,5.18
2023-06-19T13:53:48.702Z,5.57
2023-06-19T13:56:16.348Z,5.05
2023-06-19T13:58:43.558Z,5.68
2023-06-19T14:01:11.124Z,6.13
2023-06-19T14:03:39.467Z,4.88
2023-06-19T14:06:06.752Z,5.72
2023-06-19T14:08:34.295Z,4.97
2023-06-19T14:11:01.627Z,5.30
2023-06-19T14:13:28.889Z,5.47
2023-06-19T14:15:56.198Z,5.30
2023-06-19T14:18:26.915Z,5.28
2023-06-19T14:20:54.091Z,4.75
2023-06-19T14:23:21.348Z,5.30
2023-06-19T14:25:48.603Z,5.13
2023-06-19T14:28:16.558Z,5.53
2023-06-19T14:30:43.812Z,5.07
2023-06-19T14:33:16.085Z,5.15
2023-06-19T14:35:47.140Z,5.13
2023-06-19T14:38:17.576Z,4.57
2023-06-19T14:40:45.417Z,4.95
2023-06-19T14:43:12.867Z,4.85
2023-06-19T14:45:41.400Z,4.45
2023-06-19T14:48:09.270Z,4.95
2023-06-19T14:50:36.881Z,5.43
2023-06-19T14:53:04.305Z,5.60
2023-06-19T14:55:31.598Z,5.18
2023-06-19T14:57:58.836Z,5.05
2023-06-19T15:00:26.244Z,4.78
2023-06-19T15:02:53.623Z,4.55
2023-06-19T15:05:20.884Z,4.82
2023-06-19T15:07:48.068Z,4.72
2023-06-19T15:10:15.345Z,5.30
2023-06-19T15:12:42.594Z,5.10
2023-06-19T15:15:09.998Z,4.35
2023-06-19T15:17:37.318Z,4.30
2023-06-19T15:20:05.693Z,4.70
2023-06-19T15:22:33.051Z,4.25
2023-06-19T15:25:00.386Z,4.15
2023-06-19T15:27:27.600Z,3.60
2023-06-19T15:29:54.756Z,5.30
2023-06-19T15:32:22.199Z,4.20
2023-06-19T15:34:49.570Z,5.07
2023-06-19T15:37:16.894Z,4.78
2023-06-19T15:39:44.501Z,4.95
2023-06-19T15:42:12.301Z,4.43
2023-06-19T15:44:39.476Z,4.57
2023-06-19T15:47:07.304Z,4.10
2023-06-19T15:49:35.116Z,4.68
2023-06-19T15:52:02.383Z,4.30
2023-06-19T15:54:29.571Z,4.82
2023-06-19T15:56:59.404Z,4.50
2023-06-19T15:59:26.753Z,4.07
2023-06-19T16:01:54.147Z,4.03
2023-06-19T16:04:21.660Z,3.95
2023-06-19T16:06:48.818Z,4.65
2023-06-19T16:09:15.998Z,5.25
2023-06-19T16:11:43.159Z,4.95
2023-06-19T16:14:10.632Z,4.47
2023-06-19T16:16:38.064Z,4.32
2023-06-19T16:19:05.298Z,4.60
2023-06-19T16:21:32.605Z,4.32
2023-06-19T16:24:00.146Z,4.97
2023-06-19T16:26:29.498Z,4.55
2023-06-19T16:28:56.660Z,3.88
2023-06-19T16:31:23.909Z,4.35
2023-06-19T16:33:52.470Z,4.20
2023-06-19T16:36:21.170Z,4.63
2023-06-19T16:41:19.200Z,3.80
2023-06-19T16:43:47.909Z,5.10
2023-06-19T16:46:15.173Z,4.63
2023-06-19T16:48:42.513Z,4.22
2023-06-19T16:51:09.794Z,4.00
2023-06-19T16:53:36.971Z,4.15
2023-06-19T16:56:04.180Z,3.88
2023-06-19T16:58:31.620Z,3.72
2023-06-19T17:00:58.916Z,4.00
2023-06-19T17:03:26.251Z,4.35
2023-06-19T17:05:53.671Z,4.07
2023-06-19T17:08:20.882Z,3.53
2023-06-19T17:10:48.051Z,4.40
2023-06-19T17:13:15.294Z,3.95
2023-06-19T17:15:42.456Z,4.18
2023-06-19T17:18:10.322Z,4.10
2023-06-19T17:20:37.631Z,4.38
2023-06-19T17:23:04.861Z,3.63
2023-06-19T17:25:32.665Z,3.70
2023-06-19T17:27:59.988Z,3.60
2023-06-19T17:30:28.093Z,4.25
2023-06-19T17:32:55.449Z,4.55
2023-06-19T17:35:24.507Z,3.90
2023-06-19T17:37:52.323Z,3.92
2023-06-19T17:40:19.658Z,4.35
2023-06-19T17:42:46.913Z,3.90
2023-06-19T17:45:14.182Z,3.83
2023-06-19T17:47:41.570Z,3.63
2023-06-19T17:50:09.268Z,4.25
2023-06-19T17:52:36.563Z,4.30
2023-06-19T17:55:03.956Z,4.07
2023-06-19T17:57:31.402Z,4.20
2023-06-19T17:59:58.581Z,4.35
2023-06-19T18:02:26.557Z,3.97
2023-06-19T18:04:53.992Z,3.90
2023-06-19T18:07:21.146Z,3.80
2023-06-19T18:09:48.642Z,4.50
2023-06-19T18:12:16.792Z,3.97
2023-06-19T18:14:44.985Z,4.22
2023-06-19T18:17:13.227Z,4.13
2023-06-19T18:19:40.732Z,3.80
2023-06-19T18:22:08.036Z,3.70
2023-06-19T18:24:35.398Z,4.30
2023-06-19T18:27:02.671Z,4.03
2023-06-19T18:29:31.847Z,4.13
2023-06-19T18:31:59.218Z,3.90
2023-06-19T18:34:26.479Z,3.83
2023-06-19T18:36:53.932Z,4.20
2023-06-19T18:39:21.160Z,3.78
2023-06-19T18:41:48.460Z,4.65
2023-06-19T18:44:15.688Z,3.60
2023-06-19T18:46:43.058Z,4.20
2023-06-19T18:49:10.257Z,4.10
2023-06-19T18:51:37.459Z,4.32
2023-06-19T18:54:04.748Z,4.07
2023-06-19T18:56:31.999Z,4.65
2023-06-19T18:58:59.366Z,4.22
2023-06-19T19:01:26.631Z,3.83
2023-06-19T19:03:54.110Z,4.18
2023-06-19T19:06:21.293Z,4.13
2023-06-19T19:08:49.259Z,4.30
2023-06-19T19:11:16.444Z,4.50
2023-06-19T19:13:45.329Z,4.18
2023-06-19T19:16:12.600Z,4.20
2023-06-19T19:18:40.038Z,3.80
2023-06-19T19:21:07.352Z,4.03
2023-06-19T19:23:34.532Z,4.07
2023-06-19T19:26:01.871Z,4.15
2023-06-19T19:28:29.147Z,4.22
2023-06-19T19:30:56.332Z,4.28
2023-06-19T19:33:23.675Z,3.72
2023-06-19T19:35:50.869Z,3.67
2023-06-19T19:38:20.773Z,4.32
2023-06-19T19:40:48.588Z,4.30
2023-06-19T19:43:15.768Z,3.67
2023-06-19T19:45:43.060Z,4.53
2023-06-19T19:48:10.434Z,4.22
2023-06-19T19:50:37.592Z,4.22
2023-06-19T19:53:04.745Z,3.83
2023-06-19T19:55:31.879Z,4.25
2023-06-19T19:58:02.095Z,4.63
2023-06-19T20:00:29.780Z,4.50
2023-06-19T20:02:57.082Z,4.25
2023-06-19T20:05:24.380Z,4.22
2023-06-19T20:07:51.559Z,4.80
2023-06-19T20:10:19.067Z,4.43
2023-06-19T20:12:46.169Z,3.42
2023-06-19T20:15:13.309Z,4.65
2023-06-19T20:17:40.547Z,4.28
2023-06-19T20:20:08.587Z,4.07
2023-06-19T20:22:35.770Z,4.90
2023-06-19T20:25:03.138Z,4.28
2023-06-19T20:27:30.445Z,3.97
2023-06-19T20:29:57.677Z,3.83
2023-06-19T20:32:25.092Z,4.28
2023-06-19T20:34:53.255Z,4.45
2023-06-19T20:37:20.442Z,4.50
2023-06-19T20:39:47.727Z,4.18
2023-06-19T20:42:15.739Z,3.92
2023-06-19T20:44:43.085Z,4.32
2023-06-19T20:47:10.315Z,4.22
2023-06-19T20:49:37.534Z,4.45
2023-06-19T20:52:04.820Z,4.45
2023-06-19T20:54:32.026Z,4.18
2023-06-19T20:56:59.187Z,4.15
2023-06-19T20:59:26.415Z,3.85
2023-06-19T21:01:57.372Z,4.20
2023-06-19T21:04:25.417Z,4.88
2023-06-19T21:06:52.714Z,4.45
2023-06-19T21:09:19.900Z,5.15
2023-06-19T21:11:47.709Z,4.70
2023-06-19T21:14:15.271Z,4.25
2023-06-19T21:16:42.758Z,4.68
2023-06-19T21:19:09.985Z,4.28
2023-06-19T21:21:37.203Z,4.55
2023-06-19T21:24:04.489Z,5.07
2023-06-19T21:26:31.892Z,4.60
2023-06-19T21:28:59.063Z,4.38
2023-06-19T21:31:26.263Z,4.32
2023-06-19T21:33:53.568Z,4.88
2023-06-19T21:36:20.804Z,4.35
2023-06-19T21:38:48.285Z,4.40
2023-06-19T21:41:15.509Z,4.75
2023-06-19T21:43:42.691Z,5.05
2023-06-19T21:46:09.901Z,4.18
2023-06-19T21:48:37.182Z,4.25
2023-06-19T21:51:04.402Z,4.80
2023-06-19T21:53:31.639Z,5.43
2023-06-19T21:55:59.483Z,4.90
2023-06-19T21:58:26.815Z,4.95
2023-06-19T22:00:54.102Z,4.70
2023-06-19T22:03:21.515Z,5.45
2023-06-19T22:05:48.800Z,5.07
2023-06-19T22:08:16.023Z,5.05
2023-06-19T22:10:43.241Z,4.88
2023-06-19T22:13:11.678Z,4.63
2023-06-19T22:15:39.093Z,5.35
2023-06-19T22:18:06.389Z,5.78
2023-06-19T22:20:33.680Z,5.15
2023-06-19T22:23:00.976Z,4.88
2023-06-19T22:25:28.739Z,5.13
2023-06-19T22:27:56.913Z,5.25
2023-06-19T22:30:24.710Z,4.72
2023-06-19T22:32:52.411Z,5.07
2023-06-19T22:35:19.705Z,4.88
2023-06-19T22:37:47.684Z,4.85
2023-06-19T22:40:14.950Z,5.75
2023-06-19T22:42:42.874Z,5.45
2023-06-19T22:45:10.862Z,5.05
2023-06-19T22:47:39.301Z,4.40
2023-06-19T22:52:34.594Z,5.45
2023-06-19T22:55:02.185Z,5.35
2023-06-19T22:57:29.664Z,5.70
2023-06-19T22:59:56.869Z,4.70
2023-06-19T23:02:24.148Z,5.18
2023-06-19T23:04:51.372Z,4.80
2023-06-19T23:07:18.562Z,4.15
2023-06-19T23:09:46.276Z,5.07
2023-06-19T23:12:13.487Z,4.78
2023-06-19T23:14:40.657Z,4.50
2023-06-19T23:17:08.016Z,4.57
2023-06-19T23:19:35.250Z,5.07
2023-06-19T23:22:03.378Z,4.50
2023-06-19T23:24:30.589Z,5.03
2023-06-19T23:26:57.815Z,5.20
2023-06-19T23:29:25.084Z,4.97
2023-06-19T23:31:52.270Z,5.03
2023-06-19T23:34:19.484Z,4.18
2023-06-19T23:36:46.610Z,4.65
2023-06-19T23:39:13.765Z,5.30
2023-06-19T23:41:40.937Z,5.10
2023-06-19T23:44:08.229Z,4.43
2023-06-19T23:46:35.672Z,4.75
2023-06-19T23:49:02.817Z,4.40
2023-06-19T23:51:29.987Z,5.32
2023-06-19T23:53:57.326Z,5.05
2023-06-19T23:56:24.500Z,4.53
2023-06-19T23:58:51.721Z,4.80
